createdAt,value
2022-11-25T00:00:27.343Z,101356.50
2022-11-25T00:02:56.008Z,101363.44
2022-11-25T00:05:26.497Z,101359.22
2022-11-25T00:07:56.518Z,101362.09
2022-11-25T00:10:25.173Z,101357.56
2022-11-25T00:12:53.936Z,101350.47
2022-11-25T00:15:22.435Z,101364.50
2022-11-25T00:17:51.032Z,101353.97
2022-11-25T00:20:20.692Z,101356.75
2022-11-25T00:22:49.411Z,101356.88
2022-11-25T00:25:19.416Z,101366.50
2022-11-25T00:27:48.012Z,101362.19
2022-11-25T00:30:16.769Z,101370.88
2022-11-25T00:32:45.603Z,101373.47
2022-11-25T00:35:14.309Z,101366.50
2022-11-25T00:37:42.896Z,101371.78
2022-11-25T00:40:12.850Z,101366.56
2022-11-25T00:43:00.245Z,101374.66
2022-11-25T00:45:28.995Z,101364.13
2022-11-25T00:47:57.495Z,101372.94
2022-11-25T00:50:25.924Z,101369.38
2022-11-25T00:52:54.576Z,101366.56
2022-11-25T00:55:23.152Z,101369.25
2022-11-25T00:57:53.176Z,101372.00
2022-11-25T01:00:21.967Z,101368.53
2022-11-25T01:02:50.670Z,101368.63
2022-11-25T01:05:19.214Z,101377.31
2022-11-25T01:07:47.887Z,101378.22
2022-11-25T01:10:16.491Z,101380.75
2022-11-25T01:12:48.978Z,101381.84
2022-11-25T01:15:19.701Z,101385.97
2022-11-25T01:17:49.117Z,101380.94
2022-11-25T01:20:18.007Z,101380.16
2022-11-25T01:22:46.531Z,101383.53
2022-11-25T01:25:15.331Z,101386.25
2022-11-25T01:27:45.668Z,101388.81
2022-11-25T01:30:14.920Z,101393.25
2022-11-25T01:32:45.003Z,101395.03
2022-11-25T01:35:13.481Z,101386.44
2022-11-25T01:37:41.978Z,101378.47
2022-11-25T01:40:11.910Z,101382.78
2022-11-25T01:42:44.827Z,101379.41
2022-11-25T01:45:44.498Z,101376.84
2022-11-25T01:48:20.279Z,101379.50
2022-11-25T01:50:51.149Z,101381.22
2022-11-25T01:53:21.906Z,101381.06
2022-11-25T01:55:55.008Z,101386.88
2022-11-25T01:58:29.843Z,101388.22
2022-11-25T02:00:58.682Z,101394.38
2022-11-25T02:03:35.073Z,101404.03
2022-11-25T02:06:10.565Z,101391.63
2022-11-25T02:08:40.023Z,101398.50
2022-11-25T02:11:08.917Z,101402.19
2022-11-25T02:13:38.419Z,101403.22
2022-11-25T02:16:07.875Z,101404.06
2022-11-25T02:18:38.083Z,101404.81
2022-11-25T02:21:07.473Z,101409.22
2022-11-25T02:23:45.123Z,101403.97
2022-11-25T02:26:15.542Z,101404.72
2022-11-25T02:28:44.911Z,101396.16
2022-11-25T02:31:13.611Z,101399.47
2022-11-25T02:33:42.397Z,101409.22
2022-11-25T02:36:15.746Z,101411.03
2022-11-25T02:38:47.122Z,101411.91
2022-11-25T02:41:21.194Z,101413.66
2022-11-25T02:43:56.420Z,101412.66
2022-11-25T02:46:26.705Z,101410.09
2022-11-25T02:49:12.470Z,101408.38
2022-11-25T02:51:46.011Z,101408.28
2022-11-25T02:54:18.079Z,101417.06
2022-11-25T02:56:48.126Z,101417.06
2022-11-25T02:59:16.756Z,101414.50
2022-11-25T03:01:45.446Z,101417.16
2022-11-25T03:04:14.163Z,101420.72
2022-11-25T03:06:42.805Z,101416.16
2022-11-25T03:09:11.353Z,101422.38
2022-11-25T03:11:57.639Z,101428.59
2022-11-25T03:14:28.119Z,101438.22
2022-11-25T03:16:56.868Z,101436.47
2022-11-25T03:19:27.523Z,101439.94
2022-11-25T03:21:56.251Z,101441.81
2022-11-25T03:24:24.834Z,101436.56
2022-11-25T03:26:53.583Z,101430.53
2022-11-25T03:29:22.200Z,101432.22
2022-11-25T03:31:52.786Z,101433.91
2022-11-25T03:34:22.402Z,101439.28
2022-11-25T03:36:51.370Z,101434.63
2022-11-25T03:39:20.513Z,101435.69
2022-11-25T03:41:49.061Z,101440.94
2022-11-25T03:44:18.306Z,101443.53
2022-11-25T03:46:46.878Z,101438.25
2022-11-25T03:49:16.938Z,101435.69
2022-11-25T03:51:45.960Z,101444.47
2022-11-25T03:54:16.598Z,101441.91
2022-11-25T03:57:05.515Z,101442.75
2022-11-25T03:59:35.742Z,101442.84
2022-11-25T04:02:05.071Z,101450.66
2022-11-25T04:04:36.099Z,101447.19
2022-11-25T04:07:05.186Z,101447.31
2022-11-25T04:09:34.867Z,101451.63
2022-11-25T04:12:28.052Z,101450.78
2022-11-25T04:15:03.847Z,101448.16
2022-11-25T04:17:32.952Z,101449.06
2022-11-25T04:20:03.809Z,101447.19
2022-11-25T04:22:32.729Z,101454.06
2022-11-25T04:25:03.445Z,101453.41
2022-11-25T04:27:32.521Z,101456.97
2022-11-25T04:30:01.344Z,101462.28
2022-11-25T04:32:31.520Z,101460.47
2022-11-25T04:35:00.781Z,101470.84
2022-11-25T04:37:31.140Z,101463.75
2022-11-25T04:40:01.082Z,101464.78
2022-11-25T04:42:34.875Z,101471.88
2022-11-25T04:45:24.846Z,101460.47
2022-11-25T04:47:56.210Z,101466.59
2022-11-25T04:50:47.517Z,101474.53
2022-11-25T04:53:19.712Z,101462.03
2022-11-25T04:55:49.070Z,101470.00
2022-11-25T04:58:38.243Z,101474.53
2022-11-25T05:01:07.218Z,101469.13
2022-11-25T05:03:36.401Z,101469.75
2022-11-25T05:06:08.582Z,101465.34
2022-11-25T05:08:40.825Z,101462.03
2022-11-25T05:11:12.430Z,101472.41
2022-11-25T05:13:41.326Z,101475.44
2022-11-25T05:16:10.321Z,101466.19
2022-11-25T05:18:42.122Z,101470.53
2022-11-25T05:21:11.150Z,101478.69
2022-11-25T05:23:44.681Z,101476.06
2022-11-25T05:26:14.170Z,101473.38
2022-11-25T05:28:52.389Z,101479.56
2022-11-25T05:31:21.437Z,101477.69
2022-11-25T05:33:51.846Z,101492.09
2022-11-25T05:36:26.134Z,101495.28
2022-11-25T05:38:57.842Z,101492.84
2022-11-25T05:41:37.979Z,101494.53
2022-11-25T05:44:07.320Z,101491.91
2022-11-25T05:46:37.950Z,101488.25
2022-11-25T05:49:09.639Z,101492.16
2022-11-25T05:51:39.501Z,101492.84
2022-11-25T05:54:12.488Z,101495.59
2022-11-25T05:56:48.600Z,101492.13
2022-11-25T05:59:52.613Z,101492.91
2022-11-25T06:02:40.947Z,101491.16
2022-11-25T06:05:11.400Z,101492.94
2022-11-25T06:07:40.856Z,101490.34
2022-11-25T06:10:12.045Z,101485.97
2022-11-25T06:12:43.063Z,101490.94
2022-11-25T06:15:13.381Z,101490.13
2022-11-25T06:17:44.655Z,101486.75
2022-11-25T06:20:20.089Z,101483.16
2022-11-25T06:22:48.931Z,101491.06
2022-11-25T06:25:24.430Z,101494.44
2022-11-25T06:28:12.362Z,101495.56
2022-11-25T06:30:46.678Z,101500.81
2022-11-25T06:33:22.227Z,101503.31
2022-11-25T06:35:51.890Z,101506.84
2022-11-25T06:38:20.739Z,101506.09
2022-11-25T06:40:51.799Z,101507.03
2022-11-25T06:43:21.977Z,101515.91
2022-11-25T06:45:50.947Z,101512.34
2022-11-25T06:48:19.993Z,101520.16
2022-11-25T06:51:00.059Z,101519.16
2022-11-25T06:53:32.665Z,101514.00
2022-11-25T06:56:13.492Z,101532.47
2022-11-25T06:58:46.653Z,101539.31
2022-11-25T07:01:19.923Z,101546.88
2022-11-25T07:03:55.363Z,101545.19
2022-11-25T07:06:25.068Z,101538.94
2022-11-25T07:08:56.244Z,101553.25
2022-11-25T07:11:30.722Z,101555.09
2022-11-25T07:14:03.843Z,101543.47
2022-11-25T07:16:33.463Z,101547.69
2022-11-25T07:19:03.653Z,101554.63
2022-11-25T07:21:35.241Z,101556.50
2022-11-25T07:24:06.276Z,101559.94
2022-11-25T07:26:39.404Z,101565.16
2022-11-25T07:32:04.426Z,101573.06
2022-11-25T07:34:36.021Z,101565.25
2022-11-25T07:37:04.827Z,101562.59
2022-11-25T07:39:34.828Z,101565.97
2022-11-25T07:42:05.421Z,101566.66
2022-11-25T07:44:34.198Z,101568.50
2022-11-25T07:47:21.790Z,101571.94
2022-11-25T07:49:54.046Z,101570.22
2022-11-25T07:52:23.031Z,101570.00
2022-11-25T07:54:51.862Z,101571.81
2022-11-25T07:57:22.311Z,101573.44
2022-11-25T07:59:50.984Z,101565.38
2022-11-25T08:02:19.869Z,101570.47
2022-11-25T08:04:48.845Z,101571.13
2022-11-25T08:07:17.792Z,101577.53
2022-11-25T08:09:46.561Z,101583.78
2022-11-25T08:12:15.478Z,101586.47
2022-11-25T08:14:45.782Z,101583.97
2022-11-25T08:17:14.625Z,101593.59
2022-11-25T08:19:43.529Z,101595.34
2022-11-25T08:22:12.387Z,101595.34
2022-11-25T08:24:41.247Z,101595.06
2022-11-25T08:27:10.179Z,101593.34
2022-11-25T08:29:39.444Z,101597.47
2022-11-25T08:32:12.028Z,101596.72
2022-11-25T08:34:41.465Z,101599.41
2022-11-25T08:37:11.978Z,101603.69
2022-11-25T08:39:56.691Z,101596.56
2022-11-25T08:42:27.282Z,101595.06
2022-11-25T08:44:57.361Z,101598.72
2022-11-25T08:47:30.545Z,101605.72
2022-11-25T08:50:02.707Z,101606.66
2022-11-25T08:52:31.641Z,101603.69
2022-11-25T08:55:00.645Z,101592.41
2022-11-25T08:57:32.292Z,101605.72
2022-11-25T09:00:01.109Z,101608.28
2022-11-25T09:02:31.555Z,101597.91
2022-11-25T09:05:00.381Z,101599.31
2022-11-25T09:07:31.773Z,101609.03
2022-11-25T09:10:00.843Z,101612.38
2022-11-25T09:12:29.682Z,101608.81
2022-11-25T09:14:59.527Z,101618.41
2022-11-25T09:17:28.865Z,101620.41
2022-11-25T09:19:59.089Z,101618.91
2022-11-25T09:22:28.004Z,101633.53
2022-11-25T09:24:56.882Z,101626.84
2022-11-25T09:27:25.709Z,101634.84
2022-11-25T09:29:54.600Z,101627.03
2022-11-25T09:32:23.766Z,101631.34
2022-11-25T09:34:52.748Z,101632.78
2022-11-25T09:37:23.124Z,101636.25
2022-11-25T09:39:56.252Z,101635.28
2022-11-25T09:42:52.999Z,101636.16
2022-11-25T09:45:44.307Z,101640.59
2022-11-25T09:48:34.924Z,101637.38
2022-11-25T09:51:19.366Z,101634.44
2022-11-25T09:53:55.528Z,101635.41
2022-11-25T09:56:37.662Z,101635.13
2022-11-25T09:59:12.938Z,101633.53
2022-11-25T10:01:49.254Z,101633.19
2022-11-25T10:04:26.471Z,101639.22
2022-11-25T10:07:01.365Z,101638.69
2022-11-25T10:09:34.077Z,101635.47
2022-11-25T10:12:07.500Z,101635.69
2022-11-25T10:14:46.595Z,101641.63
2022-11-25T10:17:24.078Z,101640.03
2022-11-25T10:20:01.407Z,101641.59
2022-11-25T10:22:34.667Z,101645.31
2022-11-25T10:25:15.615Z,101649.03
2022-11-25T10:27:50.612Z,101648.22
2022-11-25T10:30:25.287Z,101649.16
2022-11-25T10:33:02.132Z,101652.38
2022-11-25T10:35:37.349Z,101655.09
2022-11-25T10:38:18.557Z,101661.31
2022-11-25T10:40:52.381Z,101655.13
2022-11-25T10:43:21.180Z,101660.31
2022-11-25T10:46:00.143Z,101656.03
2022-11-25T10:48:52.363Z,101648.78
2022-11-25T10:51:34.421Z,101655.66
2022-11-25T10:54:25.497Z,101656.91
2022-11-25T10:56:59.403Z,101648.16
2022-11-25T10:59:30.803Z,101658.81
2022-11-25T11:02:23.160Z,101658.66
2022-11-25T11:05:01.581Z,101655.75
2022-11-25T11:07:34.682Z,101662.09
2022-11-25T11:10:24.109Z,101656.03
2022-11-25T11:12:58.437Z,101664.69
2022-11-25T11:15:31.224Z,101661.13
2022-11-25T11:18:23.259Z,101664.75
2022-11-25T11:20:54.569Z,101659.41
2022-11-25T11:23:25.097Z,101666.50
2022-11-25T11:25:59.597Z,101655.94
2022-11-25T11:28:39.328Z,101663.19
2022-11-25T11:31:18.917Z,101657.56
2022-11-25T11:33:59.663Z,101664.91
2022-11-25T11:36:40.128Z,101666.84
2022-11-25T11:39:32.950Z,101666.69
2022-11-25T11:42:09.864Z,101669.50
2022-11-25T11:44:54.950Z,101663.31
2022-11-25T11:47:33.375Z,101680.84
2022-11-25T11:50:25.490Z,101665.00
2022-11-25T11:53:03.615Z,101669.53
2022-11-25T11:56:00.467Z,101670.53
2022-11-25T11:58:59.502Z,101677.59
2022-11-25T12:01:45.084Z,101678.53
2022-11-25T12:04:24.934Z,101682.81
2022-11-25T12:07:06.750Z,101686.47
2022-11-25T12:09:44.587Z,101681.25
2022-11-25T12:12:20.236Z,101677.59
2022-11-25T12:14:52.631Z,101678.22
2022-11-25T12:17:29.076Z,101667.63
2022-11-25T12:20:02.207Z,101673.56
2022-11-25T12:22:35.851Z,101660.66
2022-11-25T12:25:12.089Z,101663.41
2022-11-25T12:27:45.612Z,101671.19
2022-11-25T12:30:20.566Z,101669.34
2022-11-25T12:32:58.631Z,101669.25
2022-11-25T12:35:39.305Z,101668.50
2022-11-25T12:38:20.311Z,101675.28
2022-11-25T12:40:54.808Z,101674.50
2022-11-25T12:43:34.112Z,101680.72
2022-11-25T12:46:13.250Z,101685.09
2022-11-25T12:48:46.091Z,101691.38
2022-11-25T12:51:41.769Z,101687.97
2022-11-25T12:54:29.750Z,101693.00
2022-11-25T12:57:33.102Z,101687.69
2022-11-25T13:00:40.604Z,101683.34
2022-11-25T13:03:36.811Z,101693.81
2022-11-25T13:06:54.092Z,101685.34
2022-11-25T13:09:57.743Z,101694.03
2022-11-25T13:12:42.860Z,101682.72
2022-11-25T13:15:27.663Z,101684.59
2022-11-25T13:18:01.149Z,101695.13
2022-11-25T13:20:43.630Z,101693.06
2022-11-25T13:23:33.071Z,101688.81
2022-11-25T13:26:39.183Z,101694.22
2022-11-25T13:30:04.821Z,101699.56
2022-11-25T13:32:36.514Z,101698.00
2022-11-25T13:35:41.723Z,101714.72
2022-11-25T13:38:38.189Z,101711.13
2022-11-25T13:41:27.394Z,101711.31
2022-11-25T13:44:02.554Z,101715.75
2022-11-25T13:46:40.190Z,101705.28
2022-11-25T13:49:23.961Z,101710.56
2022-11-25T13:51:54.892Z,101714.13
2022-11-25T13:54:33.274Z,101713.19
2022-11-25T13:57:30.313Z,101706.97
2022-11-25T14:00:01.425Z,101713.03
2022-11-25T14:02:50.095Z,101713.03
2022-11-25T14:05:59.181Z,101722.78
2022-11-25T14:08:44.041Z,101729.06
2022-11-25T14:11:48.315Z,101718.38
2022-11-25T14:14:50.570Z,101733.44
2022-11-25T14:18:00.695Z,101721.84
2022-11-25T14:20:42.141Z,101724.47
2022-11-25T14:23:50.331Z,101727.13
2022-11-25T14:26:49.230Z,101734.19
2022-11-25T14:29:25.442Z,101738.63
2022-11-25T14:31:59.283Z,101726.19
2022-11-25T14:34:33.631Z,101732.50
2022-11-25T14:37:11.795Z,101740.56
2022-11-25T14:39:49.294Z,101733.59
2022-11-25T14:42:25.306Z,101744.16
2022-11-25T14:44:59.211Z,101742.41
2022-11-25T14:47:33.240Z,101746.84
2022-11-25T14:50:32.914Z,101736.31
2022-11-25T14:52:55.341Z,101744.91
2022-11-25T14:55:32.861Z,101746.69
2022-11-25T14:58:02.021Z,101752.03
2022-11-25T15:00:32.565Z,101759.09
2022-11-25T15:03:03.283Z,101758.31
2022-11-25T15:05:35.301Z,101755.53
2022-11-25T15:08:11.036Z,101759.03
2022-11-25T15:10:45.634Z,101759.09
2022-11-25T15:13:25.274Z,101764.28
2022-11-25T15:15:57.007Z,101762.50
2022-11-25T15:18:26.768Z,101752.72
2022-11-25T15:20:59.849Z,101756.28
2022-11-25T15:23:34.863Z,101750.25
2022-11-25T15:26:04.751Z,101754.69
2022-11-25T15:28:38.093Z,101767.84
2022-11-25T15:31:13.958Z,101764.34
2022-11-25T15:33:43.467Z,101768.69
2022-11-25T15:36:12.043Z,101768.69
2022-11-25T15:38:44.102Z,101772.34
2022-11-25T15:41:33.744Z,101774.84
2022-11-25T15:44:07.032Z,101777.59
2022-11-25T15:46:37.590Z,101775.91
2022-11-25T15:49:10.174Z,101780.50
2022-11-25T15:51:43.978Z,101782.19
2022-11-25T15:54:21.085Z,101781.34
2022-11-25T15:56:51.624Z,101779.34
2022-11-25T15:59:45.869Z,101776.75
2022-11-25T16:02:34.670Z,101784.66
2022-11-25T16:05:35.978Z,101778.66
2022-11-25T16:08:25.625Z,101780.34
2022-11-25T16:10:57.119Z,101780.41
2022-11-25T16:13:30.878Z,101785.84
2022-11-25T16:16:04.052Z,101779.69
2022-11-25T16:18:40.965Z,101782.19
2022-11-25T16:21:12.950Z,101785.78
2022-11-25T16:23:45.456Z,101781.22
2022-11-25T16:26:18.336Z,101788.47
2022-11-25T16:28:54.044Z,101782.13
2022-11-25T16:31:25.567Z,101781.28
2022-11-25T16:33:58.096Z,101795.53
2022-11-25T16:36:26.712Z,101789.31
2022-11-25T16:38:55.650Z,101793.75
2022-11-25T16:41:27.035Z,101792.81
2022-11-25T16:43:57.171Z,101797.09
2022-11-25T16:46:28.509Z,101796.31
2022-11-25T16:48:58.490Z,101795.47
2022-11-25T16:51:27.471Z,101791.19
2022-11-25T16:53:56.037Z,101792.75
2022-11-25T16:56:28.216Z,101793.03
2022-11-25T16:58:57.417Z,101790.25
2022-11-25T17:01:29.158Z,101788.25
2022-11-25T17:03:59.235Z,101793.66
2022-11-25T17:06:30.321Z,101785.91
2022-11-25T17:08:58.659Z,101787.31
2022-11-25T17:11:31.141Z,101792.59
2022-11-25T17:14:02.640Z,101789.47
2022-11-25T17:16:32.407Z,101789.47
2022-11-25T17:19:02.712Z,101788.47
2022-11-25T17:21:31.406Z,101796.44
2022-11-25T17:24:02.950Z,101792.88
2022-11-25T17:26:38.089Z,101796.31
2022-11-25T17:29:10.287Z,101790.09
2022-11-25T17:31:40.078Z,101795.16
2022-11-25T17:34:15.014Z,101791.94
2022-11-25T17:36:44.203Z,101793.91
2022-11-25T17:39:13.942Z,101798.38
2022-11-25T17:41:46.598Z,101796.38
2022-11-25T17:44:23.983Z,101803.38
2022-11-25T17:46:53.029Z,101805.13
2022-11-25T17:49:24.131Z,101803.50
2022-11-25T17:51:52.763Z,101809.63
2022-11-25T17:54:21.239Z,101807.78
2022-11-25T17:56:52.500Z,101815.69
2022-11-25T17:59:28.079Z,101814.84
2022-11-25T18:01:59.202Z,101812.25
2022-11-25T18:04:34.848Z,101818.31
2022-11-25T18:07:03.686Z,101820.97
2022-11-25T18:09:32.165Z,101815.69
2022-11-25T18:12:04.579Z,101806.94
2022-11-25T18:14:36.026Z,101806.22
2022-11-25T18:17:08.128Z,101816.75
2022-11-25T18:19:38.266Z,101812.25
2022-11-25T18:22:12.891Z,101815.91
2022-11-25T18:24:41.830Z,101814.03
2022-11-25T18:27:15.740Z,101820.16
2022-11-25T18:29:44.378Z,101821.94
2022-11-25T18:32:12.874Z,101827.00
2022-11-25T18:34:43.114Z,101828.94
2022-11-25T18:37:12.719Z,101824.53
2022-11-25T18:39:42.185Z,101830.34
2022-11-25T18:42:22.336Z,101838.41
2022-11-25T18:44:50.921Z,101828.84
2022-11-25T18:47:19.435Z,101833.13
2022-11-25T18:49:55.114Z,101829.72
2022-11-25T18:52:24.392Z,101835.97
2022-11-25T18:54:52.901Z,101838.59
2022-11-25T18:57:21.684Z,101838.63
2022-11-25T19:00:16.885Z,101846.22
2022-11-25T19:02:39.717Z,101848.28
2022-11-25T19:05:18.081Z,101844.91
2022-11-25T19:07:47.911Z,101843.06
2022-11-25T19:10:17.348Z,101850.66
2022-11-25T19:12:49.544Z,101851.06
2022-11-25T19:15:21.681Z,101853.69
2022-11-25T19:17:53.732Z,101853.56
2022-11-25T19:20:25.264Z,101850.94
2022-11-25T19:22:59.191Z,101858.84
2022-11-25T19:25:29.745Z,101861.47
2022-11-25T19:27:59.940Z,101859.63
2022-11-25T19:30:32.931Z,101863.03
2022-11-25T19:33:03.186Z,101867.38
2022-11-25T19:35:36.104Z,101866.59
2022-11-25T19:38:12.818Z,101871.66
2022-11-25T19:40:42.879Z,101864.59
2022-11-25T19:43:11.317Z,101865.53
2022-11-25T19:45:40.105Z,101861.22
2022-11-25T19:48:14.199Z,101864.50
2022-11-25T19:50:46.192Z,101870.69
2022-11-25T19:53:18.590Z,101867.00
2022-11-25T19:55:47.532Z,101874.16
2022-11-25T19:58:16.405Z,101869.88
2022-11-25T20:00:47.452Z,101876.88
2022-11-25T20:03:20.349Z,101885.25
2022-11-25T20:05:51.602Z,101890.03
2022-11-25T20:08:24.078Z,101886.66
2022-11-25T20:10:53.527Z,101892.75
2022-11-25T20:13:26.308Z,101894.59
2022-11-25T20:15:56.642Z,101894.38
2022-11-25T20:18:27.905Z,101890.91
2022-11-25T20:21:04.790Z,101884.78
2022-11-25T20:23:43.728Z,101886.69
2022-11-25T20:26:18.402Z,101882.16
2022-11-25T20:28:48.042Z,101884.75
2022-11-25T20:31:17.004Z,101895.13
2022-11-25T20:33:49.019Z,101889.91
2022-11-25T20:36:23.140Z,101889.03
2022-11-25T20:38:54.986Z,101884.78
2022-11-25T20:41:27.689Z,101889.13
2022-11-25T20:43:57.886Z,101886.56
2022-11-25T20:46:30.313Z,101888.22
2022-11-25T20:49:01.851Z,101889.97
2022-11-25T20:51:31.999Z,101895.13
2022-11-25T20:54:02.321Z,101891.75
2022-11-25T20:56:31.253Z,101891.69
2022-11-25T20:58:59.757Z,101894.34
2022-11-25T21:01:28.319Z,101890.84
2022-11-25T21:03:56.884Z,101893.19
2022-11-25T21:06:28.887Z,101888.84
2022-11-25T21:09:01.239Z,101893.28
2022-11-25T21:11:33.203Z,101891.53
2022-11-25T21:14:01.882Z,101887.41
2022-11-25T21:16:30.420Z,101889.16
2022-11-25T21:18:59.121Z,101894.19
2022-11-25T21:21:33.437Z,101891.66
2022-11-25T21:24:08.729Z,101887.41
2022-11-25T21:26:37.293Z,101889.16
2022-11-25T21:29:05.732Z,101887.03
2022-11-25T21:31:34.325Z,101889.72
2022-11-25T21:34:04.549Z,101886.41
2022-11-25T21:36:33.228Z,101892.59
2022-11-25T21:39:06.413Z,101889.13
2022-11-25T21:41:35.576Z,101893.19
2022-11-25T21:44:07.591Z,101897.03
2022-11-25T21:46:36.838Z,101896.13
2022-11-25T21:49:12.568Z,101896.13
2022-11-25T21:51:41.103Z,101908.44
2022-11-25T21:54:11.785Z,101904.66
2022-11-25T21:56:40.753Z,101902.81
2022-11-25T21:59:15.386Z,101904.38
2022-11-25T22:01:44.032Z,101913.13
2022-11-25T22:04:15.926Z,101915.06
2022-11-25T22:06:45.023Z,101911.56
2022-11-25T22:09:15.675Z,101918.69
2022-11-25T22:11:48.405Z,101909.22
2022-11-25T22:14:25.573Z,101914.44
2022-11-25T22:16:54.219Z,101912.63
2022-11-25T22:19:24.744Z,101909.63
2022-11-25T22:21:53.291Z,101906.28
2022-11-25T22:24:23.683Z,101901.84
2022-11-25T22:26:57.756Z,101903.75
2022-11-25T22:29:36.637Z,101897.16
2022-11-25T22:32:11.172Z,101909.63
2022-11-25T22:34:41.343Z,101915.81
2022-11-25T22:37:18.122Z,101913.19
2022-11-25T22:39:48.405Z,101912.41
2022-11-25T22:42:21.936Z,101921.81
2022-11-25T22:44:51.602Z,101928.03
2022-11-25T22:47:27.917Z,101931.50
2022-11-25T22:49:57.187Z,101936.00
2022-11-25T22:52:29.131Z,101938.59
2022-11-25T22:55:00.959Z,101936.13
2022-11-25T22:57:29.632Z,101936.13
2022-11-25T22:59:58.223Z,101934.22
2022-11-25T23:02:33.877Z,101938.34
2022-11-25T23:05:02.740Z,101940.13
2022-11-25T23:07:31.262Z,101940.28
2022-11-25T23:10:01.309Z,101940.84
2022-11-25T23:12:29.921Z,101949.75
2022-11-25T23:14:58.527Z,101938.50
2022-11-25T23:17:27.444Z,101949.75
2022-11-25T23:19:56.004Z,101939.47
2022-11-25T23:22:24.487Z,101948.28
2022-11-25T23:24:53.092Z,101941.19
2022-11-25T23:27:38.309Z,101948.06
2022-11-25T23:30:08.398Z,101944.56
2022-11-25T23:32:37.106Z,101939.97
2022-11-25T23:35:06.313Z,101950.00
2022-11-25T23:37:34.902Z,101954.34
2022-11-25T23:40:04.015Z,101952.59
2022-11-25T23:42:34.434Z,101953.56
2022-11-25T23:45:02.991Z,101953.31
2022-11-25T23:47:31.528Z,101961.41
2022-11-25T23:50:01.894Z,101951.78
2022-11-25T23:52:30.500Z,101954.28
2022-11-25T23:54:59.510Z,101953.47
2022-11-25T23:57:32.766Z,101953.56
